createdAt,value
2022-07-26T00:00:49.221Z,23.10
2022-07-26T00:03:16.843Z,23.00
2022-07-26T00:05:44.021Z,23.10
2022-07-26T00:08:11.137Z,23.10
2022-07-26T00:10:44.216Z,23.10
2022-07-26T00:13:12.679Z,23.10
2022-07-26T00:15:39.720Z,23.00
2022-07-26T00:18:08.106Z,23.00
2022-07-26T00:20:39.202Z,23.00
2022-07-26T00:23:06.541Z,22.90
2022-07-26T00:25:34.080Z,22.90
2022-07-26T00:28:01.247Z,23.00
2022-07-26T00:30:28.960Z,22.90
2022-07-26T00:32:56.028Z,22.90
2022-07-26T00:35:23.406Z,22.90
2022-07-26T00:37:50.368Z,23.00
2022-07-26T00:40:18.088Z,23.00
2022-07-26T00:42:45.726Z,22.90
2022-07-26T10:17:32.332Z,23.10
2022-07-26T10:20:17.660Z,23.30
2022-07-26T10:22:51.579Z,23.40
2022-07-26T10:25:18.738Z,23.30
2022-07-26T10:27:48.628Z,23.20
2022-07-26T10:30:18.718Z,23.30
2022-07-26T10:32:54.759Z,23.40
2022-07-26T10:35:36.873Z,23.50
2022-07-26T10:38:08.135Z,23.60
2022-07-26T10:40:36.869Z,23.70
2022-07-26T10:43:39.009Z,23.70
2022-07-26T10:46:18.205Z,23.80
2022-07-26T10:49:04.864Z,23.80
2022-07-26T10:51:39.468Z,23.90
2022-07-26T10:54:12.171Z,24.00
2022-07-26T10:56:40.281Z,24.10
2022-07-26T10:59:07.903Z,24.30
2022-07-26T11:01:37.465Z,24.40
2022-07-26T11:04:06.329Z,24.60
2022-07-26T11:06:33.659Z,24.70
2022-07-26T11:09:10.822Z,24.80
2022-07-26T11:11:38.019Z,24.90
2022-07-26T11:14:10.835Z,25.10
2022-07-26T11:16:46.154Z,25.20
2022-07-26T11:19:27.644Z,25.30
2022-07-26T11:22:00.281Z,25.60
2022-07-26T11:24:28.208Z,25.70
2022-07-26T11:26:56.059Z,25.80
2022-07-26T11:29:38.140Z,25.70
2022-07-26T11:32:17.667Z,25.80
2022-07-26T11:34:45.643Z,25.80
2022-07-26T11:37:13.251Z,25.70
2022-07-26T11:39:40.780Z,25.70
2022-07-26T11:42:10.145Z,25.80
2022-07-26T19:19:38.807Z,23.70
2022-07-26T19:22:06.246Z,23.70
2022-07-26T19:24:33.323Z,23.60
2022-07-26T19:27:01.405Z,23.50
2022-07-26T19:29:28.379Z,23.40
2022-07-26T19:31:55.403Z,23.40
2022-07-26T19:34:24.071Z,23.30
2022-07-26T19:36:52.885Z,23.30
2022-07-26T19:39:21.167Z,23.20
2022-07-26T19:41:48.364Z,23.30
2022-07-26T19:44:15.972Z,23.30
2022-07-26T19:46:44.028Z,23.30
2022-07-26T19:49:12.714Z,23.30
2022-07-26T19:51:41.246Z,23.20
2022-07-26T19:54:09.562Z,23.20
2022-07-26T19:56:36.769Z,23.20
2022-07-26T19:59:03.978Z,23.20
2022-07-26T20:01:31.134Z,23.30
2022-07-26T20:03:58.244Z,23.30
2022-07-26T20:06:25.303Z,23.40
2022-07-26T20:08:52.404Z,23.50
2022-07-26T20:11:22.685Z,23.50
2022-07-26T20:13:50.214Z,23.50
2022-07-26T20:16:17.806Z,23.60
2022-07-26T20:18:45.685Z,23.50
2022-07-26T20:21:12.862Z,23.60
2022-07-26T20:23:40.163Z,23.50
2022-07-26T20:26:07.240Z,23.60
2022-07-26T20:28:34.291Z,23.60
2022-07-26T20:31:01.404Z,23.60
2022-07-26T20:33:28.568Z,23.70
2022-07-26T20:35:55.611Z,23.80
2022-07-26T20:38:23.123Z,23.80
2022-07-26T20:40:50.276Z,23.80
2022-07-26T20:43:17.728Z,23.70
2022-07-26T20:45:45.074Z,23.80
2022-07-26T20:48:12.145Z,23.70
2022-07-26T20:50:39.212Z,23.80
2022-07-26T20:53:06.177Z,23.80
2022-07-26T20:55:33.204Z,23.80
2022-07-26T20:58:00.178Z,23.90
2022-07-26T21:00:28.413Z,23.90
2022-07-26T21:02:55.591Z,23.80
2022-07-26T21:05:22.811Z,23.80
2022-07-26T21:07:57.285Z,23.80
2022-07-26T21:10:30.133Z,23.80
2022-07-26T21:13:05.738Z,23.90
2022-07-26T21:15:32.946Z,23.80
2022-07-26T21:18:01.256Z,23.80
2022-07-26T21:20:28.483Z,23.80
2022-07-26T21:23:08.036Z,23.80
2022-07-26T21:25:42.931Z,23.80
2022-07-26T21:28:09.965Z,23.80
2022-07-26T21:30:37.092Z,23.80
2022-07-26T21:33:04.212Z,23.60
2022-07-26T21:35:32.843Z,23.60
2022-07-26T21:37:59.806Z,23.60
2022-07-26T21:40:26.929Z,23.50
2022-07-26T21:42:53.884Z,23.50
2022-07-26T21:45:23.923Z,23.60
2022-07-26T21:47:50.924Z,23.60
2022-07-26T21:50:17.986Z,23.50
2022-07-26T21:52:44.964Z,23.50
2022-07-26T21:55:17.777Z,23.50
2022-07-26T21:57:45.821Z,23.50
2022-07-26T22:00:15.704Z,23.50
2022-07-26T22:02:42.808Z,23.50
2022-07-26T22:05:28.977Z,23.40
2022-07-26T22:07:56.086Z,23.40
2022-07-26T22:10:23.324Z,23.50
2022-07-26T22:12:50.448Z,23.50
2022-07-26T22:15:17.883Z,23.60
2022-07-26T22:17:44.884Z,23.60
2022-07-26T22:20:12.425Z,23.70
2022-07-26T22:22:39.485Z,23.60
2022-07-26T22:25:06.783Z,23.60
2022-07-26T22:27:33.804Z,23.60
2022-07-26T22:30:00.845Z,23.60
2022-07-26T22:32:27.886Z,23.70
2022-07-26T22:34:54.885Z,23.70
2022-07-26T22:37:24.769Z,23.60
2022-07-26T22:39:51.765Z,23.60
2022-07-26T22:42:18.809Z,23.60
2022-07-26T22:44:45.919Z,23.60
2022-07-26T22:47:13.067Z,23.60
2022-07-26T22:49:40.185Z,23.50
2022-07-26T22:52:07.205Z,23.50
2022-07-26T22:54:34.284Z,23.60
2022-07-26T22:57:01.310Z,23.50
2022-07-26T22:59:28.442Z,23.50
2022-07-26T23:01:55.413Z,23.50
2022-07-26T23:04:22.619Z,23.50
2022-07-26T23:06:49.647Z,23.40
2022-07-26T23:09:16.565Z,23.40
2022-07-26T23:11:43.562Z,23.30
2022-07-26T23:14:11.499Z,23.20
2022-07-26T23:16:39.047Z,23.20
2022-07-26T23:19:06.487Z,23.20
2022-07-26T23:21:33.721Z,23.20
2022-07-26T23:24:00.662Z,23.20
2022-07-26T23:26:27.770Z,23.10
2022-07-26T23:28:54.838Z,23.10
2022-07-26T23:31:21.950Z,23.00
2022-07-26T23:33:51.584Z,23.00
2022-07-26T23:36:26.047Z,22.90
2022-07-26T23:38:57.448Z,22.90
2022-07-26T23:41:24.930Z,22.90
2022-07-26T23:43:52.938Z,22.80
2022-07-26T23:46:20.321Z,22.80
2022-07-26T23:48:47.817Z,22.80
2022-07-26T23:51:15.005Z,22.80
2022-07-26T23:53:42.528Z,22.80
2022-07-26T23:56:09.931Z,22.80
2022-07-26T23:58:37.775Z,22.80
